Time;durP1;ratioP1;P1;durP2;ratioP2;P2;SDS_P1;SDS_P2;PMS_P1;PMS_P2;Temp;Humidity;BMP_temperature;BMP_pressure;BME280_temperature;BME280_humidity;BME280_pressure;Samples;Min_cycle;Max_cycle;Signal;HPM_P1;HPM_P2
2023/10/12 00:02:23;;;;;;;14.60;5.60;;;;;;;-148.88;95.79;-17125.47;5026249;28;20030;-83
2023/10/12 00:05:17;;;;;;;12.43;5.13;;;;;;;-148.88;95.50;-17125.47;5026822;28;20077;-84
2023/10/12 00:08:24;;;;;;;10.60;5.25;;;;;;;-148.88;96.20;-17125.47;5028520;28;20029;-85
2023/10/12 00:11:20;;;;;;;10.45;5.00;;;;;;;-148.88;96.71;-17125.47;5023049;28;20044;-84
2023/10/12 00:13:54;;;;;;;13.02;5.53;;;;;;;-148.88;97.34;-17125.47;4987367;28;20407;-84
2023/10/12 00:17:17;;;;;;;;;;;;;;;;;;;;;
2023/10/12 00:19:53;;;;;;;12.63;5.43;;;;;;;-148.88;97.57;-17125.47;5027353;28;20037;-86
2023/10/12 00:22:45;;;;;;;10.25;5.10;;;;;;;-148.88;96.74;-17125.47;5028188;28;20026;-85
2023/10/12 00:25:45;;;;;;;;;;;;;;;;;;;;;
2023/10/12 00:28:38;;;;;;;14.30;5.35;;;;;;;-148.88;97.37;-17125.47;5026412;28;20089;-84
2023/10/12 00:31:29;;;;;;;11.57;5.13;;;;;;;-148.88;97.68;-17125.47;5024791;28;20036;-81
2023/10/12 00:34:08;;;;;;;15.18;5.53;;;;;;;-148.88;97.05;-17125.47;5024316;28;20022;-84
2023/10/12 00:36:37;;;;;;;12.93;5.70;;;;;;;-148.88;97.05;-17125.47;5025494;28;20060;-83
2023/10/12 00:39:09;;;;;;;10.25;5.93;;;;;;;-148.88;96.52;-17125.47;5024891;28;20174;-84
2023/10/12 00:41:44;;;;;;;14.57;5.55;;;;;;;-148.88;96.36;-17125.47;5025520;28;20132;-85
2023/10/12 00:44:18;;;;;;;13.77;6.15;;;;;;;-148.88;97.33;-17125.47;5024564;28;20090;-84
2023/10/12 00:47:12;;;;;;;16.27;6.32;;;;;;;-148.88;99.18;-17125.47;5022755;28;20026;-83
2023/10/12 00:50:11;;;;;;;14.02;6.65;;;;;;;-148.88;100.00;-17125.47;5021505;28;20025;-83
2023/10/12 00:53:15;;;;;;;9.48;6.47;;;;;;;-148.88;100.00;-17125.47;5022333;28;20084;-85
2023/10/12 00:56:10;;;;;;;9.82;6.40;;;;;;;-148.88;100.00;-17125.47;5022005;28;20040;-85
2023/10/12 00:59:05;;;;;;;12.90;7.22;;;;;;;-148.88;100.00;-17125.47;5019366;28;20059;-85
2023/10/12 01:02:36;;;;;;;;;;;;;;;;;;;;;
2023/10/12 01:05:34;;;;;;;12.73;6.90;;;;;;;-148.88;100.00;-17125.47;4911529;29;20040;-84
2023/10/12 01:08:23;;;;;;;13.50;7.32;;;;;;;-148.88;100.00;-17125.47;4926285;29;20027;-83
2023/10/12 01:10:59;;;;;;;12.63;7.38;;;;;;;-148.88;100.00;-17125.47;4923927;29;20043;-84
2023/10/12 01:14:05;;;;;;;15.40;7.45;;;;;;;-148.88;100.00;-17125.47;5003302;28;20041;-82
2023/10/12 01:20:27;;;;;;;14.52;7.57;;;;;;;-148.88;100.00;-17125.47;4999305;28;20022;-83
2023/10/12 01:24:00;;;;;;;;;;;;;;;;;;;;;
2023/10/12 01:30:04;;;;;;;;;;;;;;;;;;;;;
2023/10/12 01:33:13;;;;;;;14.85;7.32;;;;;;;-148.88;100.00;-17125.47;4979726;28;20105;-83
2023/10/12 01:35:40;;;;;;;13.75;7.97;;;;;;;-148.88;100.00;-17125.47;4915280;29;20039;-82
2023/10/12 01:38:08;;;;;;;12.10;7.72;;;;;;;-148.88;100.00;-17125.47;4918605;29;20508;-83
2023/10/12 01:40:52;;;;;;;13.07;8.10;;;;;;;-148.88;100.00;-17125.47;4920561;29;20024;-84
2023/10/12 01:43:18;;;;;;;12.38;8.55;;;;;;;-148.88;100.00;-17125.47;4920159;29;20415;-85
2023/10/12 01:45:47;;;;;;;15.90;9.48;;;;;;;-148.88;100.00;-17125.47;4920021;29;20047;-84
2023/10/12 01:48:22;;;;;;;14.60;8.40;;;;;;;-148.88;100.00;-17125.47;4920064;29;20504;-84
2023/10/12 01:50:49;;;;;;;16.13;8.98;;;;;;;-148.88;100.00;-17125.47;5005442;28;20570;-82
2023/10/12 01:53:23;;;;;;;14.25;8.98;;;;;;;-148.88;100.00;-17125.47;5018549;28;20057;-84
2023/10/12 01:55:59;;;;;;;16.33;9.88;;;;;;;-148.88;100.00;-17125.47;5019193;28;20021;-84
2023/10/12 01:58:28;;;;;;;16.25;9.63;;;;;;;-148.88;100.00;-17125.47;5016309;28;20025;-81
2023/10/12 02:01:05;;;;;;;14.45;9.30;;;;;;;-148.88;100.00;-17125.47;5014030;28;20504;-83
2023/10/12 02:03:42;;;;;;;15.75;10.38;;;;;;;-148.88;100.00;-17125.47;5014916;28;20056;-83
2023/10/12 02:06:14;;;;;;;14.65;9.63;;;;;;;-148.88;100.00;-17125.47;5015384;28;20441;-84
2023/10/12 02:08:45;;;;;;;18.88;10.65;;;;;;;-148.88;100.00;-17125.47;5015385;28;20460;-82
2023/10/12 02:11:26;;;;;;;17.27;10.60;;;;;;;-148.88;100.00;-17125.47;5014866;28;20112;-82
2023/10/12 02:13:55;;;;;;;16.30;10.60;;;;;;;-148.88;100.00;-17125.47;5014999;28;20420;-81
2023/10/12 02:16:30;;;;;;;16.38;10.23;;;;;;;-148.88;100.00;-17125.47;5016619;28;20083;-82
2023/10/12 02:18:56;;;;;;;15.80;10.13;;;;;;;-148.88;100.00;-17125.47;5016400;28;20036;-83
2023/10/12 02:21:25;;;;;;;19.60;11.02;;;;;;;-148.88;100.00;-17125.47;5017804;28;20022;-83
2023/10/12 02:32:15;;;;;;;18.48;12.10;;;;;;;-148.88;100.00;-17125.47;5019854;28;20021;-81
2023/10/12 02:34:43;;;;;;;17.23;11.20;;;;;;;-148.88;100.00;-17125.47;5016402;28;20164;-83
2023/10/12 02:39:42;;;;;;;18.25;12.57;;;;;;;-148.88;100.00;-17125.47;5021330;28;20026;-83
2023/10/12 02:44:57;;;;;;;19.13;12.85;;;;;;;-148.88;100.00;-17125.47;5019038;28;20066;-81
2023/10/12 02:47:33;;;;;;;23.05;13.15;;;;;;;-148.88;100.00;-17125.47;5018196;28;20038;-84
2023/10/12 02:50:00;;;;;;;18.58;12.73;;;;;;;-148.88;100.00;-17125.47;5017503;28;20061;-83
2023/10/12 02:52:31;;;;;;;22.45;13.40;;;;;;;-148.88;100.00;-17125.47;5017463;28;20065;-82
2023/10/12 02:54:57;;;;;;;21.35;13.45;;;;;;;-148.88;100.00;-17125.47;5017890;28;20088;-82
2023/10/12 02:57:30;;;;;;;22.25;13.55;;;;;;;-148.88;100.00;-17125.47;5019558;28;20032;-81
2023/10/12 03:00:09;;;;;;;23.48;14.13;;;;;;;-148.88;100.00;-17125.47;5019240;28;20064;-82
2023/10/12 03:02:35;;;;;;;23.38;14.63;;;;;;;-148.88;100.00;-17125.47;5020284;28;20079;-81
2023/10/12 03:05:06;;;;;;;22.13;15.68;;;;;;;-148.88;100.00;-17125.47;5018479;28;20026;-81
2023/10/12 03:07:44;;;;;;;27.30;17.08;;;;;;;-148.88;100.00;-17125.47;5017237;28;20058;-82
2023/10/12 03:10:29;;;;;;;30.45;17.55;;;;;;;-148.88;100.00;-17125.47;5020961;28;20097;-81
2023/10/12 03:12:55;;;;;;;29.08;17.02;;;;;;;-148.88;100.00;-17125.47;5016005;28;20021;-82
2023/10/12 03:18:15;;;;;;;29.73;18.35;;;;;;;-148.88;100.00;-17125.47;5017008;28;20037;-81
2023/10/12 03:20:52;;;;;;;28.40;17.90;;;;;;;-148.88;100.00;-17125.47;5016032;28;20030;-82
2023/10/12 03:23:19;;;;;;;32.08;19.08;;;;;;;-148.88;100.00;-17125.47;5014995;28;20501;-80
2023/10/12 03:25:46;;;;;;;31.25;20.25;;;;;;;-148.88;100.00;-17125.47;5016902;28;20030;-82
2023/10/12 03:28:29;;;;;;;30.83;19.52;;;;;;;-148.88;100.00;-17125.47;5015960;28;20030;-82
2023/10/12 03:31:10;;;;;;;31.20;20.93;;;;;;;-148.88;100.00;-17125.47;5019040;28;20033;-84
2023/10/12 03:33:36;;;;;;;28.50;18.63;;;;;;;-148.88;100.00;-17125.47;5016938;28;20061;-82
2023/10/12 03:38:58;;;;;;;31.52;20.98;;;;;;;-148.88;100.00;-17125.47;5021620;28;20032;-81
2023/10/12 03:44:22;;;;;;;32.10;21.33;;;;;;;-148.88;100.00;-17125.47;5001048;28;20041;-81
2023/10/12 03:46:57;;;;;;;36.47;21.42;;;;;;;-148.88;100.00;-17125.47;5021512;28;20036;-83
2023/10/12 03:49:32;;;;;;;30.05;21.35;;;;;;;-148.88;100.00;-17125.47;5020445;28;20022;-80
2023/10/12 03:52:13;;;;;;;32.97;22.30;;;;;;;-148.88;100.00;-17125.47;5019277;28;20018;-79
2023/10/12 03:54:55;;;;;;;37.15;23.23;;;;;;;-148.88;100.00;-17125.47;5018875;28;20509;-81
2023/10/12 03:57:50;;;;;;;34.75;22.23;;;;;;;-148.88;100.00;-17125.47;5018997;28;20072;-79
2023/10/12 04:08:17;;;;;;;35.08;24.38;;;;;;;-148.88;100.00;-17125.47;5020257;28;20025;-81
2023/10/12 04:21:39;;;;;;;;;;;;;;;-148.88;100.00;-17125.47;5022127;28;20049;-79
2023/10/12 04:29:30;;;;;;;34.08;22.90;;;;;;;-148.88;100.00;-17125.47;5020885;28;20037;-80
2023/10/12 04:32:28;;;;;;;37.15;24.25;;;;;;;-148.88;100.00;-17125.47;5018131;28;20018;-82
2023/10/12 04:34:54;;;;;;;33.58;21.38;;;;;;;-148.88;100.00;-17125.47;5002756;28;20033;-80
2023/10/12 04:37:22;;;;;;;31.52;21.65;;;;;;;-148.88;100.00;-17125.47;5019705;28;20033;-80
2023/10/12 04:39:56;;;;;;;35.78;23.17;;;;;;;-148.88;100.00;-17125.47;5019797;28;20479;-81
2023/10/12 04:42:34;;;;;;;30.50;21.33;;;;;;;-148.88;100.00;-17125.47;5019526;28;20029;-80
2023/10/12 04:47:48;;;;;;;34.40;22.63;;;;;;;-148.88;100.00;-17125.47;5020723;28;20378;-81
2023/10/12 04:50:27;;;;;;;35.75;22.65;;;;;;;-148.88;100.00;-17125.47;5019235;28;20029;-81
2023/10/12 04:53:09;;;;;;;37.78;23.52;;;;;;;-148.88;100.00;-17125.47;5020594;28;20450;-81
2023/10/12 04:55:35;;;;;;;30.60;21.60;;;;;;;-148.88;100.00;-17125.47;5020054;28;20101;-82
2023/10/12 04:58:13;;;;;;;28.30;20.85;;;;;;;-148.88;100.00;-17125.47;5021284;28;20061;-81
2023/10/12 05:00:55;;;;;;;29.80;20.27;;;;;;;-148.88;100.00;-17125.47;5021468;28;20052;-79
2023/10/12 05:03:25;;;;;;;30.52;20.92;;;;;;;-148.88;100.00;-17125.47;5019243;28;20402;-81
2023/10/12 05:06:04;;;;;;;28.63;20.48;;;;;;;-148.88;100.00;-17125.47;5018919;28;20054;-80
2023/10/12 05:08:34;;;;;;;27.75;19.33;;;;;;;-148.88;100.00;-17125.47;5019706;28;20029;-81
2023/10/12 05:10:59;;;;;;;29.85;20.40;;;;;;;-148.88;100.00;-17125.47;5017407;28;20056;-79
2023/10/12 05:13:25;;;;;;;28.98;20.08;;;;;;;-148.88;100.00;-17125.47;5018793;28;20026;-81
2023/10/12 05:16:06;;;;;;;28.98;20.27;;;;;;;-148.88;100.00;-17125.47;5017732;28;20026;-81
2023/10/12 05:18:33;;;;;;;28.60;19.85;;;;;;;-148.88;100.00;-17125.47;5018673;28;20029;-81
2023/10/12 05:21:00;;;;;;;27.70;19.75;;;;;;;-148.88;100.00;-17125.47;5017928;28;20025;-79
2023/10/12 05:23:29;;;;;;;27.23;19.58;;;;;;;-148.88;100.00;-17125.47;5018575;28;20025;-81
2023/10/12 05:28:27;;;;;;;26.08;18.33;;;;;;;-148.88;100.00;-17125.47;5019447;28;20132;-80
2023/10/12 05:31:09;;;;;;;22.05;17.15;;;;;;;-148.88;100.00;-17125.47;5018402;28;20478;-82
2023/10/12 05:33:38;;;;;;;23.65;17.10;;;;;;;-148.88;100.00;-17125.47;5019431;28;20026;-81
2023/10/12 05:36:08;;;;;;;26.73;17.13;;;;;;;-148.88;100.00;-17125.47;5019657;28;20075;-80
2023/10/12 05:38:37;;;;;;;23.45;16.60;;;;;;;-148.88;100.00;-17125.47;5017698;28;20021;-80
2023/10/12 05:41:08;;;;;;;24.42;16.83;;;;;;;-148.88;100.00;-17125.47;5019016;28;20068;-80
2023/10/12 05:43:40;;;;;;;25.38;17.73;;;;;;;-148.88;100.00;-17125.47;5016711;28;20034;-78
2023/10/12 05:46:16;;;;;;;24.65;17.17;;;;;;;-148.88;100.00;-17125.47;5017340;28;20030;-79
2023/10/12 05:48:46;;;;;;;26.42;17.90;;;;;;;-148.88;100.00;-17125.47;5018723;28;20021;-81
2023/10/12 05:51:21;;;;;;;25.77;18.70;;;;;;;-148.88;100.00;-17125.47;5017564;28;20045;-83
2023/10/12 05:53:48;;;;;;;24.83;17.15;;;;;;;-148.88;100.00;-17125.47;5017988;28;20037;-83
2023/10/12 05:56:17;;;;;;;25.40;18.10;;;;;;;-148.88;100.00;-17125.47;5017413;28;20029;-82
2023/10/12 05:58:43;;;;;;;23.67;15.88;;;;;;;-148.88;100.00;-17125.47;5017179;28;20026;-83
2023/10/12 06:01:09;;;;;;;22.60;14.90;;;;;;;-148.88;100.00;-17125.47;5018874;28;20030;-81
2023/10/12 06:03:39;;;;;;;20.25;13.18;;;;;;;-148.88;100.00;-17125.47;5018867;28;20077;-83
2023/10/12 06:06:06;;;;;;;17.17;11.65;;;;;;;-148.88;100.00;-17125.47;5019014;28;20022;-83
2023/10/12 06:08:33;;;;;;;17.00;10.98;;;;;;;-148.88;100.00;-17125.47;5018090;28;20455;-83
2023/10/12 06:11:09;;;;;;;14.57;9.85;;;;;;;-148.88;100.00;-17125.47;5018543;28;20030;-81
2023/10/12 06:13:41;;;;;;;14.00;9.52;;;;;;;-148.88;100.00;-17125.47;5018092;28;20029;-79
2023/10/12 06:16:20;;;;;;;14.00;9.30;;;;;;;-148.88;100.00;-17125.47;5017064;28;20030;-81
2023/10/12 06:18:49;;;;;;;16.15;10.60;;;;;;;-148.88;100.00;-17125.47;5016835;28;20060;-82
2023/10/12 06:21:20;;;;;;;14.50;10.20;;;;;;;-148.88;100.00;-17125.47;5017407;28;20032;-80
2023/10/12 06:23:50;;;;;;;15.27;9.77;;;;;;;-148.88;100.00;-17125.47;5017363;28;20026;-82
2023/10/12 06:26:28;;;;;;;16.52;9.98;;;;;;;-148.88;100.00;-17125.47;5017850;28;20033;-82
2023/10/12 06:29:07;;;;;;;15.98;9.55;;;;;;;-148.88;100.00;-17125.47;5017187;28;20109;-81
2023/10/12 06:31:33;;;;;;;13.77;9.70;;;;;;;-148.88;100.00;-17125.47;5016211;28;20022;-82
2023/10/12 06:34:10;;;;;;;16.05;10.07;;;;;;;-148.88;100.00;-17125.47;5017633;28;20064;-80
2023/10/12 06:36:39;;;;;;;12.85;9.00;;;;;;;-148.88;100.00;-17125.47;5016228;28;20402;-82
2023/10/12 06:46:46;;;;;;;15.50;9.63;;;;;;;-148.88;100.00;-17125.47;5019483;28;20074;-82
2023/10/12 06:49:21;;;;;;;19.25;13.15;;;;;;;-148.88;100.00;-17125.47;5018911;28;20026;-79
2023/10/12 06:51:54;;;;;;;13.23;8.57;;;;;;;-148.88;100.00;-17125.47;5016042;28;20033;-81
2023/10/12 07:02:51;;;;;;;8.82;6.18;;;;;;;-148.88;100.00;-17125.47;5012817;28;20053;-82
2023/10/12 07:05:20;;;;;;;7.15;5.53;;;;;;;-148.88;100.00;-17125.47;5015312;28;20033;-79
2023/10/12 07:07:51;;;;;;;9.07;5.43;;;;;;;-148.88;100.00;-17125.47;5015458;28;20474;-81
2023/10/12 07:10:27;;;;;;;7.60;5.55;;;;;;;-148.88;100.00;-17125.47;5019138;28;20037;-80
2023/10/12 07:12:57;;;;;;;9.85;5.80;;;;;;;-148.88;100.00;-17125.47;5019748;28;20041;-80
2023/10/12 07:15:23;;;;;;;7.93;4.88;;;;;;;-148.88;100.00;-17125.47;5021966;28;20029;-80
2023/10/12 07:17:52;;;;;;;9.13;5.28;;;;;;;-148.88;100.00;-17125.47;5021483;28;20028;-82
2023/10/12 07:23:14;;;;;;;7.32;5.05;;;;;;;-148.88;100.00;-17125.47;5021464;28;20553;-80
2023/10/12 07:25:51;;;;;;;9.07;5.47;;;;;;;-148.88;100.00;-17125.47;5021052;28;20041;-79
2023/10/12 07:28:18;;;;;;;9.18;4.88;;;;;;;-148.88;100.00;-17125.47;5019559;28;20026;-79
2023/10/12 07:30:44;;;;;;;8.68;5.50;;;;;;;-148.88;100.00;-17125.47;5021015;28;20022;-80
2023/10/12 07:33:09;;;;;;;10.35;5.38;;;;;;;-148.88;100.00;-17125.47;5020259;28;20469;-79
2023/10/12 07:35:38;;;;;;;10.77;5.18;;;;;;;-148.88;100.00;-17125.47;5019762;28;20026;-80
2023/10/12 07:38:12;;;;;;;7.97;4.88;;;;;;;-148.88;100.00;-17125.47;5021657;28;20483;-79
2023/10/12 07:40:52;;;;;;;6.53;4.43;;;;;;;-148.88;100.00;-17125.47;5019980;28;20030;-79
2023/10/12 07:43:20;;;;;;;9.35;4.90;;;;;;;-148.88;100.00;-17125.47;5018657;28;20026;-79
2023/10/12 07:45:48;;;;;;;7.88;3.60;;;;;;;-148.88;100.00;-17125.47;5019129;28;20026;-80
2023/10/12 07:48:29;;;;;;;8.45;3.17;;;;;;;-148.88;100.00;-17125.47;5019114;28;20034;-79
2023/10/12 07:50:56;;;;;;;7.05;3.00;;;;;;;-148.88;100.00;-17125.47;5021094;28;20029;-81
2023/10/12 07:53:24;;;;;;;8.68;3.10;;;;;;;-148.88;100.00;-17125.47;5019701;28;20018;-81
2023/10/12 07:56:05;;;;;;;7.93;2.50;;;;;;;-148.88;100.00;-17125.47;5019746;28;20116;-79
2023/10/12 07:58:35;;;;;;;8.73;3.00;;;;;;;-148.88;100.00;-17125.47;5021061;28;20026;-81
2023/10/12 08:03:50;;;;;;;9.40;3.72;;;;;;;-148.88;100.00;-17125.47;5020453;28;20036;-79
2023/10/12 08:06:42;;;;;;;13.27;4.50;;;;;;;-148.88;100.00;-17125.47;5020730;28;20052;-79
2023/10/12 08:11:50;;;;;;;10.70;4.50;;;;;;;-148.88;100.00;-17125.47;5019454;28;20034;-78
2023/10/12 08:17:25;;;;;;;10.60;4.57;;;;;;;-148.88;100.00;-17125.47;5020450;28;20030;-81
2023/10/12 08:22:29;;;;;;;9.35;3.50;;;;;;;-148.88;100.00;-17125.47;4998152;28;20064;-83
2023/10/12 08:25:04;;;;;;;9.20;3.67;;;;;;;-148.88;100.00;-17125.47;5020322;28;20021;-82
2023/10/12 08:27:52;;;;;;;10.50;4.25;;;;;;;-148.88;100.00;-17125.47;5018814;28;20092;-81
2023/10/12 08:30:21;;;;;;;8.23;3.58;;;;;;;-148.88;100.00;-17125.47;5019901;28;20052;-81
2023/10/12 08:32:58;;;;;;;7.30;3.10;;;;;;;-148.88;100.00;-17125.47;5019051;28;20022;-83
2023/10/12 08:35:37;;;;;;;6.03;2.83;;;;;;;-148.88;100.00;-17125.47;5020411;28;20034;-80
2023/10/12 08:38:12;;;;;;;5.00;2.63;;;;;;;-148.88;100.00;-17125.47;5021098;28;20026;-81
2023/10/12 08:40:53;;;;;;;7.00;2.55;;;;;;;-148.88;100.00;-17125.47;5016513;28;20026;-81
2023/10/12 08:43:34;;;;;;;9.45;2.65;;;;;;;-148.88;100.00;-17125.47;5015017;28;20472;-80
2023/10/12 08:46:00;;;;;;;5.93;2.25;;;;;;;-148.88;100.00;-17125.47;5032507;28;20022;-81
2023/10/12 08:48:26;;;;;;;8.48;2.38;;;;;;;-148.88;100.00;-17125.47;5014856;28;20504;-81
2023/10/12 08:51:09;;;;;;;5.60;2.45;;;;;;;-148.88;100.00;-17125.47;5015560;28;20154;-81
2023/10/12 08:53:38;;;;;;;5.32;2.20;;;;;;;-148.88;100.00;-17125.47;5016148;28;20018;-82
2023/10/12 08:56:08;;;;;;;5.18;2.20;;;;;;;-148.88;100.00;-17125.47;5016605;28;20030;-84
2023/10/12 08:58:43;;;;;;;7.78;3.00;;;;;;;-148.88;100.00;-17125.47;5017444;28;20026;-81
2023/10/12 09:01:20;;;;;;;10.38;3.20;;;;;;;-148.88;100.00;-17125.47;5016210;28;20511;-82
2023/10/12 09:03:46;;;;;;;5.47;3.10;;;;;;;-148.88;100.00;-17125.47;5017125;28;20026;-81
2023/10/12 09:06:36;;;;;;;6.38;2.70;;;;;;;-148.88;100.00;-17125.47;5015807;28;20366;-83
2023/10/12 09:09:03;;;;;;;6.07;2.80;;;;;;;-148.88;100.00;-17125.47;5015465;28;20383;-81
2023/10/12 09:11:34;;;;;;;5.55;2.60;;;;;;;-148.88;100.00;-17125.47;5015238;28;20022;-82
2023/10/12 09:14:12;;;;;;;7.05;2.42;;;;;;;-148.88;100.00;-17125.47;5016283;28;20022;-80
2023/10/12 09:16:38;;;;;;;5.25;2.58;;;;;;;-148.88;100.00;-17125.47;5013960;28;20030;-80
2023/10/12 09:19:07;;;;;;;6.03;2.72;;;;;;;-148.88;100.00;-17125.47;5015288;28;20036;-80
2023/10/12 09:21:57;;;;;;;5.68;2.80;;;;;;;-148.88;100.00;-17125.47;5014110;28;20022;-80
2023/10/12 09:24:28;;;;;;;6.05;2.78;;;;;;;-148.88;100.00;-17125.47;5015369;28;20351;-81
2023/10/12 09:27:02;;;;;;;4.13;2.42;;;;;;;-148.88;100.00;-17125.47;5013845;28;20037;-81
2023/10/12 09:29:42;;;;;;;5.72;2.72;;;;;;;-148.88;100.00;-17125.47;5015042;28;20026;-81
2023/10/12 09:34:42;;;;;;;3.65;2.03;;;;;;;-148.88;100.00;-17125.47;5016211;28;20029;-82
2023/10/12 09:37:08;;;;;;;3.42;2.10;;;;;;;-148.88;100.00;-17125.47;5014519;28;20391;-80
2023/10/12 09:39:34;;;;;;;2.63;1.60;;;;;;;-148.88;100.00;-17125.47;5016309;28;20025;-82
2023/10/12 09:42:24;;;;;;;3.80;1.38;;;;;;;-148.88;100.00;-17125.47;5015238;28;20030;-82
2023/10/12 09:45:08;;;;;;;4.85;1.70;;;;;;;-148.88;100.00;-17125.47;5015648;28;20065;-81
2023/10/12 09:47:44;;;;;;;4.13;1.60;;;;;;;-148.88;100.00;-17125.47;5016098;28;20482;-82
2023/10/12 09:50:13;;;;;;;4.00;1.77;;;;;;;-148.88;100.00;-17125.47;5015862;28;20406;-81
2023/10/12 09:52:57;;;;;;;4.03;2.00;;;;;;;-148.88;100.00;-17125.47;5013724;28;20014;-79
2023/10/12 09:55:25;;;;;;;4.45;1.85;;;;;;;-148.88;100.00;-17125.47;5015108;28;20109;-81
2023/10/12 09:58:00;;;;;;;4.03;2.33;;;;;;;-148.88;100.00;-17125.47;5014818;28;20057;-79
2023/10/12 10:00:53;;;;;;;3.15;1.98;;;;;;;-148.88;100.00;-17125.47;5016054;28;20022;-81
2023/10/12 10:03:17;;;;;;;3.15;1.98;;;;;;;-148.88;100.00;-17125.47;5015121;28;20029;-83
2023/10/12 10:06:01;;;;;;;5.15;2.00;;;;;;;-148.88;100.00;-17125.47;5014449;28;20037;-81
2023/10/12 10:08:29;;;;;;;4.35;2.20;;;;;;;-148.88;100.00;-17125.47;5014904;28;20088;-81
2023/10/12 10:10:59;;;;;;;2.78;1.70;;;;;;;-148.88;100.00;-17125.47;5015451;28;20054;-82
2023/10/12 10:13:46;;;;;;;3.15;1.65;;;;;;;-148.88;100.00;-17125.47;5015834;28;20101;-81
2023/10/12 10:16:17;;;;;;;3.25;1.95;;;;;;;-148.88;100.00;-17125.47;5014236;28;20398;-81
2023/10/12 10:19:14;;;;;;;4.85;1.60;;;;;;;-148.88;100.00;-17125.47;5015788;28;20498;-82
2023/10/12 10:22:04;;;;;;;3.42;1.73;;;;;;;-148.88;100.00;-17125.47;5015757;28;20066;-80
2023/10/12 10:24:57;;;;;;;2.75;1.67;;;;;;;-148.88;100.00;-17125.47;5016178;28;20030;-82
2023/10/12 10:27:34;;;;;;;3.65;2.60;;;;;;;-148.88;100.00;-17125.47;5014744;28;20060;-79
2023/10/12 10:30:27;;;;;;;3.75;2.00;;;;;;;-148.88;100.00;-17125.47;5014610;28;20037;-81
2023/10/12 10:33:13;;;;;;;4.28;2.25;;;;;;;-148.88;100.00;-17125.47;5015129;28;20034;-80
2023/10/12 10:36:10;;;;;;;3.65;2.15;;;;;;;-148.88;100.00;-17125.47;5014232;28;20030;-79
2023/10/12 10:38:55;;;;;;;3.38;1.77;;;;;;;-148.88;100.00;-17125.47;5016027;28;20029;-82
2023/10/12 10:44:15;;;;;;;3.13;1.73;;;;;;;-148.88;100.00;-17125.47;5031047;28;20516;-76
2023/10/12 10:46:44;;;;;;;3.80;1.83;;;;;;;-148.88;100.00;-17125.47;5030089;28;20432;-76
2023/10/12 10:49:15;;;;;;;4.40;2.00;;;;;;;-148.88;100.00;-17125.47;5031389;28;20466;-76
2023/10/12 10:51:47;;;;;;;4.43;2.05;;;;;;;-148.88;100.00;-17125.47;5031672;28;20021;-76
2023/10/12 10:54:18;;;;;;;3.90;2.03;;;;;;;-148.88;100.00;-17125.47;5031840;28;20021;-76
2023/10/12 10:56:48;;;;;;;2.88;1.90;;;;;;;-148.88;100.00;-17125.47;5031645;28;20398;-76
2023/10/12 10:59:17;;;;;;;2.60;1.50;;;;;;;-148.88;100.00;-17125.47;5032003;28;20028;-76
2023/10/12 11:01:50;;;;;;;3.80;1.80;;;;;;;-148.88;100.00;-17125.47;5029947;28;20480;-77
2023/10/12 11:04:41;;;;;;;2.77;2.00;;;;;;;-148.88;100.00;-17125.47;5031502;28;20026;-76
2023/10/12 11:07:11;;;;;;;7.68;3.08;;;;;;;-148.88;100.00;-17125.47;5031295;28;20272;-76
2023/10/12 11:12:23;;;;;;;6.47;3.20;;;;;;;-148.88;100.00;-17125.47;5031452;28;20017;-76
2023/10/12 11:14:58;;;;;;;7.57;3.80;;;;;;;-148.88;100.00;-17125.47;5029870;28;20021;-76
2023/10/12 11:17:27;;;;;;;8.30;3.63;;;;;;;-148.88;100.00;-17125.47;5031765;28;20087;-76
2023/10/12 11:19:53;;;;;;;7.28;4.10;;;;;;;-148.88;100.00;-17125.47;5031259;28;20026;-77
2023/10/12 11:22:19;;;;;;;5.25;3.53;;;;;;;-148.88;100.00;-17125.47;5031048;28;20091;-77
2023/10/12 11:24:45;;;;;;;7.53;4.05;;;;;;;-148.88;100.00;-17125.47;5031169;28;20025;-76
2023/10/12 11:27:11;;;;;;;6.43;3.40;;;;;;;-148.88;100.00;-17125.47;5031481;28;20077;-76
2023/10/12 11:29:52;;;;;;;7.70;4.00;;;;;;;-148.88;100.00;-17125.47;5029855;28;20022;-76
2023/10/12 11:32:20;;;;;;;4.75;3.20;;;;;;;-148.88;100.00;-17125.47;5031139;28;20029;-76
2023/10/12 11:34:55;;;;;;;5.70;3.13;;;;;;;-148.88;100.00;-17125.47;5031383;28;20083;-77
2023/10/12 11:37:20;;;;;;;5.05;3.22;;;;;;;-148.88;100.00;-17125.47;5030993;28;20055;-75
2023/10/12 11:39:47;;;;;;;4.85;3.05;;;;;;;-148.88;100.00;-17125.47;5030801;28;20101;-77
2023/10/12 11:42:13;;;;;;;4.70;3.03;;;;;;;-148.88;100.00;-17125.47;5030800;28;20133;-77
2023/10/12 11:44:43;;;;;;;3.85;2.58;;;;;;;-148.88;100.00;-17125.47;5029498;28;20080;-77
2023/10/12 11:47:10;;;;;;;5.30;2.80;;;;;;;-148.88;100.00;-17125.47;5030937;28;20029;-77
2023/10/12 11:49:58;;;;;;;4.45;2.47;;;;;;;-148.88;100.00;-17125.47;5030926;28;20439;-77
2023/10/12 11:52:30;;;;;;;4.78;2.38;;;;;;;-148.88;100.00;-17125.47;5029442;28;20120;-77
2023/10/12 11:55:07;;;;;;;4.13;2.15;;;;;;;-148.88;100.00;-17125.47;5030867;28;20017;-77
2023/10/12 11:57:37;;;;;;;5.30;2.80;;;;;;;-148.88;100.00;-17125.47;5033966;28;20045;-77
2023/10/12 12:00:20;;;;;;;4.82;2.58;;;;;;;-148.88;100.00;-17125.47;5034179;28;20021;-77
2023/10/12 12:02:46;;;;;;;3.92;3.03;;;;;;;-148.88;100.00;-17125.47;5034360;28;20030;-77
2023/10/12 12:05:11;;;;;;;5.82;3.08;;;;;;;-148.88;100.00;-17125.47;5034070;28;20401;-77
2023/10/12 12:07:37;;;;;;;5.40;2.90;;;;;;;-148.88;100.00;-17125.47;5033567;28;20032;-77
2023/10/12 12:10:03;;;;;;;4.18;2.30;;;;;;;-148.88;100.00;-17125.47;5034169;28;20021;-77
2023/10/12 12:12:28;;;;;;;3.85;2.40;;;;;;;-148.88;100.00;-17125.47;5032820;28;20022;-77
2023/10/12 12:14:54;;;;;;;3.03;1.95;;;;;;;-148.88;100.00;-17125.47;5034460;28;20048;-77
2023/10/12 12:17:19;;;;;;;5.20;2.15;;;;;;;-148.88;100.00;-17125.47;5032889;28;20071;-77
2023/10/12 12:19:44;;;;;;;3.00;1.88;;;;;;;-148.88;100.00;-17125.47;5033912;28;20045;-77
2023/10/12 12:22:10;;;;;;;3.85;1.88;;;;;;;-148.88;100.00;-17125.47;5034037;28;20121;-77
2023/10/12 12:24:37;;;;;;;4.03;1.83;;;;;;;-148.88;100.00;-17125.47;5032694;28;20032;-77
2023/10/12 12:27:03;;;;;;;4.07;1.83;;;;;;;-148.88;100.00;-17125.47;5032985;28;20026;-77
2023/10/12 12:29:29;;;;;;;2.92;2.00;;;;;;;-148.88;100.00;-17125.47;5033885;28;20040;-77
2023/10/12 12:31:57;;;;;;;4.13;2.00;;;;;;;-148.88;100.00;-17125.47;5033913;28;20021;-77
2023/10/12 12:34:38;;;;;;;6.32;2.70;;;;;;;-148.88;100.00;-17125.47;5033849;28;20032;-77
2023/10/12 12:37:06;;;;;;;3.53;2.08;;;;;;;-148.88;100.00;-17125.47;5032528;28;20028;-77
2023/10/12 12:39:34;;;;;;;4.97;2.22;;;;;;;-148.88;100.00;-17125.47;5033885;28;20022;-77
2023/10/12 12:42:02;;;;;;;5.20;1.95;;;;;;;-148.88;100.00;-17125.47;5032195;28;20029;-77
2023/10/12 12:44:27;;;;;;;4.90;2.20;;;;;;;-148.88;100.00;-17125.47;5034091;28;20022;-77
2023/10/12 12:46:53;;;;;;;5.93;2.45;;;;;;;-148.88;100.00;-17125.47;5034252;28;20404;-77
2023/10/12 12:49:18;;;;;;;5.50;2.47;;;;;;;-148.88;100.00;-17125.47;5033593;28;20506;-76
2023/10/12 12:51:45;;;;;;;4.28;2.55;;;;;;;-148.88;100.00;-17125.47;5033878;28;20152;-76
2023/10/12 12:54:11;;;;;;;4.45;2.88;;;;;;;-148.88;100.00;-17125.47;5032452;28;20030;-76
2023/10/12 12:56:39;;;;;;;4.47;2.47;;;;;;;-148.88;100.00;-17125.47;5033738;28;20028;-77
2023/10/12 12:59:04;;;;;;;4.57;2.65;;;;;;;-148.88;100.00;-17125.47;5033418;28;20040;-77
2023/10/12 13:01:31;;;;;;;3.78;2.70;;;;;;;-148.88;100.00;-17125.47;5033647;28;20033;-76
2023/10/12 13:03:57;;;;;;;5.88;2.95;;;;;;;-148.88;100.00;-17125.47;5033718;28;20027;-76
2023/10/12 13:06:25;;;;;;;4.07;2.80;;;;;;;-148.88;100.00;-17125.47;5033504;28;20025;-76
2023/10/12 13:08:51;;;;;;;5.78;3.00;;;;;;;-148.88;100.00;-17125.47;5031801;28;20374;-76
2023/10/12 13:11:21;;;;;;;5.68;2.65;;;;;;;-148.88;100.00;-17125.47;5033623;28;20032;-76
2023/10/12 13:13:47;;;;;;;3.45;2.20;;;;;;;-148.88;100.00;-17125.47;5033256;28;20071;-76